Time;durP1;ratioP1;P1;durP2;ratioP2;P2;SDS_P1;SDS_P2;PMS_P1;PMS_P2;Temp;Humidity;BMP_temperature;BMP_pressure;BME280_temperature;BME280_humidity;BME280_pressure;Samples;Min_cycle;Max_cycle;Signal;HPM_P1;HPM_P2
2021/09/21 00:01:50;;;;;;;10.95;8.23;;;;;;;14.50;64.56;97968.44;4930436;28;20675;-80
2021/09/21 00:04:16;;;;;;;17.13;11.68;;;;;;;14.55;64.08;97976.34;4923772;28;20712;-80
2021/09/21 00:06:41;;;;;;;21.63;14.88;;;;;;;14.57;64.28;97980.28;4912556;28;20631;-81
2021/09/21 00:09:07;;;;;;;15.90;11.52;;;;;;;14.60;63.63;97981.66;4946912;28;20678;-80
2021/09/21 00:11:33;;;;;;;13.10;10.02;;;;;;;14.58;64.34;97975.81;4942952;28;20317;-80
2021/09/21 00:14:00;;;;;;;11.35;8.07;;;;;;;14.66;63.84;97979.84;4906802;28;20208;-80
2021/09/21 00:16:26;;;;;;;10.50;7.72;;;;;;;14.60;63.73;97963.31;4964919;28;20248;-81
2021/09/21 00:18:51;;;;;;;10.48;8.32;;;;;;;14.59;63.46;97961.72;4938733;28;20181;-80
2021/09/21 00:21:17;;;;;;;8.38;7.00;;;;;;;14.60;63.68;97952.81;4928359;28;20195;-80
2021/09/21 00:23:42;;;;;;;11.15;8.63;;;;;;;14.63;63.29;97960.16;4944358;28;20693;-80
2021/09/21 00:26:08;;;;;;;10.63;8.60;;;;;;;14.60;63.49;97953.59;4949967;28;20244;-80
2021/09/21 00:28:33;;;;;;;11.85;9.15;;;;;;;14.65;63.21;97952.84;4954293;28;20143;-80
2021/09/21 00:31:04;;;;;;;13.65;9.77;;;;;;;14.61;63.77;97949.91;4932697;28;20188;-81
2021/09/21 00:33:45;;;;;;;11.13;8.70;;;;;;;14.63;63.34;97949.66;4954920;28;20150;-80
2021/09/21 00:36:11;;;;;;;15.02;9.98;;;;;;;14.62;63.25;97945.50;4920315;28;20345;-80
2021/09/21 00:38:36;;;;;;;14.52;10.60;;;;;;;14.64;63.72;97940.78;4936727;28;20293;-80
2021/09/21 00:41:01;;;;;;;14.23;10.82;;;;;;;14.66;63.23;97946.56;4929827;28;20224;-80
2021/09/21 00:43:27;;;;;;;13.93;10.32;;;;;;;14.66;63.90;97967.53;4955959;28;20211;-80
2021/09/21 00:45:52;;;;;;;12.85;9.60;;;;;;;14.66;63.91;97983.25;4939288;28;20249;-80
2021/09/21 00:48:19;;;;;;;10.63;8.13;;;;;;;14.70;63.34;98001.88;4955774;28;20637;-81
2021/09/21 00:50:44;;;;;;;11.63;7.95;;;;;;;14.62;63.56;97997.91;4962694;28;20204;-81
2021/09/21 00:53:10;;;;;;;9.65;7.25;;;;;;;14.63;63.06;97986.38;4950700;28;20166;-80
2021/09/21 00:55:35;;;;;;;12.90;7.97;;;;;;;14.64;63.23;97990.56;4951159;28;20235;-80
2021/09/21 00:58:01;;;;;;;9.75;6.78;;;;;;;14.60;62.93;97989.50;4934699;28;20192;-80
2021/09/21 01:00:26;;;;;;;9.05;6.80;;;;;;;14.61;63.12;97983.22;4968544;28;20257;-80
2021/09/21 01:02:52;;;;;;;11.15;8.15;;;;;;;14.60;63.29;97982.44;5000084;22;20220;-80
2021/09/21 01:05:18;;;;;;;14.20;10.70;;;;;;;14.56;63.18;97983.91;4954464;28;20722;-80
2021/09/21 01:07:43;;;;;;;15.15;10.63;;;;;;;14.55;63.06;97992.06;4954710;28;20275;-79
2021/09/21 01:10:10;;;;;;;25.42;16.08;;;;;;;14.51;63.44;97988.34;4968858;28;20296;-79
2021/09/21 01:12:37;;;;;;;21.20;14.93;;;;;;;14.55;63.92;97989.44;4993018;28;20368;-79
2021/09/21 01:15:04;;;;;;;16.00;11.20;;;;;;;14.54;63.81;97987.84;4970480;28;20278;-79
2021/09/21 01:17:29;;;;;;;11.50;8.57;;;;;;;14.61;63.20;97991.84;4938359;28;20203;-79
2021/09/21 01:19:55;;;;;;;10.27;7.60;;;;;;;14.59;63.10;97993.94;4970919;28;20172;-79
2021/09/21 01:22:20;;;;;;;10.27;7.38;;;;;;;14.50;63.50;97981.53;4970844;28;20206;-79
2021/09/21 01:24:46;;;;;;;10.73;7.05;;;;;;;14.52;62.95;97987.31;4938474;28;20203;-79
2021/09/21 01:27:11;;;;;;;11.10;7.75;;;;;;;14.53;63.06;97981.00;4954453;28;20098;-80
2021/09/21 01:29:37;;;;;;;9.00;7.13;;;;;;;14.53;62.94;97981.81;4970514;28;20191;-80
2021/09/21 01:32:03;;;;;;;7.97;6.15;;;;;;;14.57;62.85;97977.66;4937447;28;20275;-79
2021/09/21 01:34:28;;;;;;;9.38;7.30;;;;;;;14.61;62.80;97980.59;4954591;28;20199;-79
2021/09/21 01:36:53;;;;;;;8.88;6.78;;;;;;;14.59;62.77;97970.34;4988984;28;20289;-79
2021/09/21 01:39:19;;;;;;;8.27;7.28;;;;;;;14.57;62.90;97980.28;4982962;28;20266;-79
2021/09/21 01:41:46;;;;;;;8.23;6.40;;;;;;;14.65;62.78;97991.34;4990454;28;20302;-79
2021/09/21 01:44:15;;;;;;;8.43;7.30;;;;;;;14.56;62.60;97997.03;4973521;28;20216;-79
2021/09/21 01:46:40;;;;;;;8.63;7.07;;;;;;;14.65;62.10;98002.66;4973982;28;20674;-79
2021/09/21 01:49:06;;;;;;;8.90;6.75;;;;;;;14.57;62.80;98003.84;4957441;28;20198;-79
2021/09/21 01:51:34;;;;;;;9.25;7.07;;;;;;;14.57;62.98;98016.19;4986984;28;20738;-79
2021/09/21 01:59:09;;;;;;;10.02;7.60;;;;;;;14.45;63.30;97991.97;4986582;28;20205;-79
2021/09/21 02:01:36;;;;;;;10.13;7.28;;;;;;;14.46;63.26;97999.56;4964432;28;20119;-79
2021/09/21 02:04:05;;;;;;;9.07;7.65;;;;;;;14.46;63.03;98004.78;4968786;28;20262;-79
2021/09/21 02:06:37;;;;;;;9.68;7.25;;;;;;;14.43;63.03;98000.84;4988203;28;20632;-79
2021/09/21 02:09:05;;;;;;;10.52;8.15;;;;;;;14.39;63.11;97997.16;4969734;28;20244;-79
2021/09/21 02:11:31;;;;;;;10.23;7.97;;;;;;;14.37;63.50;97996.59;4986202;28;20207;-79
2021/09/21 02:13:57;;;;;;;10.75;8.20;;;;;;;14.21;64.03;98002.75;4986274;28;20200;-80
2021/09/21 02:16:29;;;;;;;9.05;7.43;;;;;;;14.02;63.78;97990.00;4969489;28;20163;-79
2021/09/21 02:18:55;;;;;;;10.98;8.20;;;;;;;14.19;64.09;97995.13;4970013;28;20625;-79
2021/09/21 02:21:20;;;;;;;12.02;8.32;;;;;;;14.20;63.53;97994.09;4969951;28;20167;-79
2021/09/21 02:23:46;;;;;;;11.02;8.25;;;;;;;14.30;63.48;97998.63;4969245;28;20352;-79
2021/09/21 02:26:12;;;;;;;9.93;8.02;;;;;;;14.37;62.88;98004.47;4986328;28;20260;-79
2021/09/21 02:28:38;;;;;;;9.98;8.25;;;;;;;14.42;62.93;98009.75;4986320;28;20340;-79
2021/09/21 02:31:03;;;;;;;10.82;7.78;;;;;;;14.42;63.05;98014.97;4986290;28;20670;-79
2021/09/21 02:33:29;;;;;;;11.18;7.95;;;;;;;14.45;63.25;98026.03;4969463;28;20182;-79
2021/09/21 02:35:54;;;;;;;12.65;8.20;;;;;;;14.35;63.54;98024.88;4969871;28;20203;-80
2021/09/21 02:38:20;;;;;;;11.10;8.13;;;;;;;14.22;63.96;98030.50;4969486;28;20644;-79
2021/09/21 02:40:46;;;;;;;10.90;8.70;;;;;;;14.13;64.03;98019.69;4952663;28;20198;-79
2021/09/21 02:43:11;;;;;;;11.07;8.02;;;;;;;14.22;64.45;98035.75;4968553;28;20623;-79
2021/09/21 02:45:36;;;;;;;10.20;7.88;;;;;;;14.22;64.12;98025.28;4969328;28;20359;-80
2021/09/21 02:48:02;;;;;;;11.25;8.75;;;;;;;14.17;63.77;98023.41;4969323;28;20201;-79
2021/09/21 02:50:28;;;;;;;10.95;8.18;;;;;;;14.27;63.50;98035.78;4941786;28;20190;-80
2021/09/21 02:52:54;;;;;;;11.40;8.85;;;;;;;14.27;63.65;98038.41;4957293;28;20187;-79
2021/09/21 02:55:19;;;;;;;11.77;8.40;;;;;;;14.21;63.50;98034.97;4965881;28;20194;-80
2021/09/21 02:57:45;;;;;;;11.80;8.77;;;;;;;14.29;63.53;98038.97;4967693;28;20640;-80
2021/09/21 03:00:11;;;;;;;11.65;9.20;;;;;;;14.17;63.39;98039.13;4965942;28;20284;-79
2021/09/21 03:02:37;;;;;;;12.27;8.52;;;;;;;14.18;63.62;98037.28;4948733;28;20279;-79
2021/09/21 03:05:08;;;;;;;10.68;7.68;;;;;;;14.20;63.74;98027.34;4949624;28;20325;-79
2021/09/21 03:07:46;;;;;;;11.88;8.50;;;;;;;14.31;63.35;98031.66;4966835;28;20281;-79
2021/09/21 03:10:20;;;;;;;12.43;9.18;;;;;;;14.29;63.56;98025.06;4966712;28;20242;-79
2021/09/21 03:18:03;;;;;;;11.63;9.65;;;;;;;14.16;63.50;98034.91;4971399;28;20163;-79
2021/09/21 03:20:28;;;;;;;12.65;8.82;;;;;;;14.25;63.30;98040.50;4985226;28;20194;-79
2021/09/21 03:22:54;;;;;;;11.38;8.95;;;;;;;14.27;63.29;98043.66;4965095;28;20168;-79
2021/09/21 03:25:20;;;;;;;14.68;9.40;;;;;;;14.26;63.36;98036.84;4982130;28;20224;-80
2021/09/21 03:27:45;;;;;;;13.43;8.68;;;;;;;14.18;63.31;98027.59;4948628;28;20160;-79
2021/09/21 03:30:12;;;;;;;13.15;9.70;;;;;;;14.13;63.64;98034.63;4968326;28;20114;-80
2021/09/21 03:32:38;;;;;;;12.82;8.95;;;;;;;14.05;63.61;98035.81;4984556;28;20304;-79
2021/09/21 03:35:05;;;;;;;11.27;9.02;;;;;;;13.85;63.79;98036.41;4968669;28;20307;-79
2021/09/21 03:37:31;;;;;;;10.82;8.65;;;;;;;14.10;63.22;98043.75;4968096;28;20403;-79
2021/09/21 03:39:57;;;;;;;11.18;9.18;;;;;;;14.14;63.05;98041.44;4968687;28;20267;-80
2021/09/21 03:42:22;;;;;;;11.38;9.00;;;;;;;14.18;63.14;98034.66;4984784;28;20197;-79
2021/09/21 03:44:47;;;;;;;12.85;9.68;;;;;;;14.13;63.27;98042.47;4987215;28;20705;-80
2021/09/21 03:47:13;;;;;;;12.38;9.20;;;;;;;14.16;63.12;98049.84;4984038;28;20205;-79
2021/09/21 03:49:38;;;;;;;11.18;8.90;;;;;;;14.23;62.82;98043.34;4944834;28;20190;-80
2021/09/21 03:52:04;;;;;;;12.30;9.52;;;;;;;14.21;63.11;98052.50;4952577;28;20272;-80
2021/09/21 03:54:29;;;;;;;12.80;9.55;;;;;;;14.14;63.19;98057.16;4964182;28;20659;-79
2021/09/21 03:56:54;;;;;;;10.98;9.13;;;;;;;14.26;62.96;98052.56;4971255;28;20268;-79
2021/09/21 03:59:20;;;;;;;12.70;9.25;;;;;;;14.26;62.98;98064.84;4984706;28;20197;-79
2021/09/21 04:01:46;;;;;;;11.93;9.38;;;;;;;14.26;63.10;98065.66;4984535;28;20674;-79
2021/09/21 04:04:11;;;;;;;11.98;8.70;;;;;;;14.17;63.10;98073.16;4983686;28;20232;-79
2021/09/21 04:06:36;;;;;;;10.88;8.75;;;;;;;13.98;63.52;98072.69;4967540;28;20258;-79
2021/09/21 04:09:02;;;;;;;12.23;9.23;;;;;;;13.97;63.32;98081.56;4951439;28;20189;-79
2021/09/21 04:11:30;;;;;;;10.75;8.63;;;;;;;13.96;63.29;98092.28;4951585;28;20210;-80
2021/09/21 04:13:55;;;;;;;12.27;8.80;;;;;;;14.00;62.72;98090.75;4951600;28;20267;-79
2021/09/21 04:16:20;;;;;;;10.02;8.43;;;;;;;13.98;62.80;98084.97;4979309;28;20025;-79
2021/09/21 04:18:46;;;;;;;11.50;8.40;;;;;;;14.02;62.72;98084.25;4973933;28;20678;-79
2021/09/21 04:21:12;;;;;;;14.23;9.05;;;;;;;13.89;62.88;98081.22;4984503;28;20176;-80
2021/09/21 04:23:39;;;;;;;10.48;8.75;;;;;;;13.83;63.08;98082.97;4967684;28;20231;-79
2021/09/21 04:26:08;;;;;;;11.98;8.85;;;;;;;13.82;62.69;98089.25;4985418;28;20205;-79
2021/09/21 04:28:35;;;;;;;10.52;8.43;;;;;;;13.98;62.60;98084.97;4971544;28;20422;-79
2021/09/21 04:31:08;;;;;;;10.45;8.73;;;;;;;13.73;63.07;98090.69;4971895;28;20187;-79
2021/09/21 04:33:35;;;;;;;12.50;8.35;;;;;;;13.77;62.82;98097.03;4959525;28;20387;-80
2021/09/21 04:36:11;;;;;;;11.68;9.30;;;;;;;13.65;62.55;98087.44;4991796;28;20210;-79
2021/09/21 04:38:37;;;;;;;10.82;8.25;;;;;;;13.77;62.62;98091.78;4955557;28;20157;-80
2021/09/21 04:41:06;;;;;;;11.95;8.27;;;;;;;13.72;62.64;98099.56;4971530;28;20214;-79
2021/09/21 04:43:32;;;;;;;11.55;8.63;;;;;;;13.68;62.74;98094.81;4992583;28;20542;-80
2021/09/21 04:45:58;;;;;;;9.88;8.32;;;;;;;13.86;62.03;98088.53;5006604;28;20189;-80
2021/09/21 04:48:24;;;;;;;11.82;8.50;;;;;;;13.97;61.94;98092.03;4986279;28;20273;-79
2021/09/21 04:50:49;;;;;;;9.82;7.60;;;;;;;13.93;61.63;98090.97;4988024;28;20689;-79
2021/09/21 04:53:15;;;;;;;10.55;8.18;;;;;;;13.70;61.98;98099.03;4987412;28;20608;-79
2021/09/21 04:55:41;;;;;;;9.65;8.07;;;;;;;13.81;61.97;98103.34;4988067;28;20243;-80
2021/09/21 04:58:06;;;;;;;9.90;7.82;;;;;;;13.83;61.92;98112.56;4988033;28;20677;-80
2021/09/21 05:00:32;;;;;;;10.48;7.72;;;;;;;13.89;61.45;98110.00;4970386;28;20272;-79
2021/09/21 05:02:57;;;;;;;9.13;7.57;;;;;;;14.03;61.83;98098.94;4971056;28;20697;-80
2021/09/21 05:05:23;;;;;;;11.82;7.65;;;;;;;14.04;61.34;98103.13;4970660;28;20236;-79
2021/09/21 05:07:48;;;;;;;9.82;8.40;;;;;;;13.98;61.29;98113.78;4964464;28;20203;-79
2021/09/21 05:10:14;;;;;;;11.68;8.20;;;;;;;14.03;61.49;98104.19;4963318;28;20280;-80
2021/09/21 05:12:40;;;;;;;10.07;8.20;;;;;;;14.05;61.38;98104.72;4963862;28;20294;-79
2021/09/21 05:15:06;;;;;;;9.55;8.32;;;;;;;13.94;61.56;98095.16;4986693;28;20327;-79
2021/09/21 05:17:31;;;;;;;9.43;7.70;;;;;;;13.98;61.39;98117.22;4988784;28;20186;-78
2021/09/21 05:19:57;;;;;;;11.10;8.00;;;;;;;13.89;61.32;98120.47;4970639;28;20183;-79
2021/09/21 05:22:22;;;;;;;9.23;7.78;;;;;;;13.96;61.34;98124.50;4962462;28;20293;-80
2021/09/21 05:24:47;;;;;;;9.43;8.00;;;;;;;13.93;61.32;98122.38;4950658;28;20600;-80
2021/09/21 05:27:13;;;;;;;10.55;8.10;;;;;;;13.86;61.78;98119.94;4934171;28;20098;-80
2021/09/21 05:29:38;;;;;;;8.65;7.40;;;;;;;13.95;61.10;98135.19;4946192;28;20235;-80
2021/09/21 05:32:04;;;;;;;10.45;7.97;;;;;;;13.81;61.45;98142.63;4948165;28;20266;-79
2021/09/21 05:34:29;;;;;;;9.25;7.75;;;;;;;13.90;61.68;98141.19;4953055;28;20734;-80
2021/09/21 05:36:55;;;;;;;10.75;7.80;;;;;;;13.97;61.61;98149.66;4970428;28;20215;-80
2021/09/21 05:39:20;;;;;;;11.68;7.82;;;;;;;13.92;61.35;98144.34;4953346;28;20182;-80
2021/09/21 05:41:45;;;;;;;8.93;7.15;;;;;;;13.94;61.40;98151.97;4987243;28;20271;-80
2021/09/21 05:44:11;;;;;;;9.75;6.95;;;;;;;13.88;61.45;98155.53;4956496;28;20220;-80
2021/09/21 05:46:36;;;;;;;8.60;7.45;;;;;;;13.74;61.88;98168.16;4970093;28;20184;-79
2021/09/21 05:49:01;;;;;;;9.07;7.43;;;;;;;13.74;61.57;98162.94;4972633;28;20163;-80
2021/09/21 05:51:28;;;;;;;7.80;6.40;;;;;;;13.76;62.07;98166.09;4969922;28;20210;-79
2021/09/21 05:53:53;;;;;;;9.60;7.10;;;;;;;13.60;61.93;98173.72;4967451;28;20800;-79
2021/09/21 05:56:19;;;;;;;10.02;7.38;;;;;;;13.54;62.36;98177.31;4966596;28;20168;-79
2021/09/21 05:58:45;;;;;;;9.90;6.97;;;;;;;13.64;62.11;98176.66;4947056;28;20271;-79
2021/09/21 06:01:10;;;;;;;10.38;7.68;;;;;;;13.50;61.73;98181.41;4984241;28;20357;-79
2021/09/21 06:03:36;;;;;;;9.10;7.28;;;;;;;13.47;62.51;98202.84;4936955;28;20445;-81
2021/09/21 06:06:01;;;;;;;8.70;7.18;;;;;;;13.57;62.22;98203.00;4953449;28;20372;-79
2021/09/21 06:08:27;;;;;;;8.55;6.75;;;;;;;13.53;62.06;98195.88;4962736;28;20683;-80
2021/09/21 06:10:52;;;;;;;9.55;7.07;;;;;;;13.58;62.06;98215.03;4941878;28;20197;-80
2021/09/21 06:13:18;;;;;;;10.20;7.90;;;;;;;13.53;62.06;98217.59;4949829;28;20243;-79
2021/09/21 06:15:44;;;;;;;8.48;7.25;;;;;;;13.58;61.95;98233.34;4966934;28;20249;-79
2021/09/21 06:18:09;;;;;;;9.07;7.00;;;;;;;13.77;61.52;98241.78;4950519;28;20666;-80
2021/09/21 06:20:36;;;;;;;7.50;6.25;;;;;;;13.59;61.37;98245.44;4950881;28;20201;-79
2021/09/21 06:23:02;;;;;;;8.75;6.75;;;;;;;13.58;61.85;98258.75;4971588;28;20650;-80
2021/09/21 06:25:27;;;;;;;9.18;6.82;;;;;;;13.57;62.14;98257.97;4933725;28;20263;-79
2021/09/21 06:27:52;;;;;;;7.68;6.80;;;;;;;13.66;61.54;98267.00;4955169;28;20189;-77
2021/09/21 06:30:18;;;;;;;7.80;7.03;;;;;;;13.66;61.02;98263.59;4986557;28;20163;-78
2021/09/21 06:32:44;;;;;;;8.00;6.70;;;;;;;13.51;61.53;98261.50;4969083;28;20227;-78
2021/09/21 06:35:10;;;;;;;9.00;7.15;;;;;;;13.60;61.19;98262.69;4969693;28;20476;-78
2021/09/21 06:37:35;;;;;;;7.97;7.00;;;;;;;13.51;60.82;98255.50;4985744;28;20155;-78
2021/09/21 06:40:04;;;;;;;10.20;7.43;;;;;;;13.74;60.30;98259.78;4986034;28;20156;-77
2021/09/21 06:42:32;;;;;;;9.18;7.70;;;;;;;13.74;60.63;98257.16;4968982;28;20564;-78
2021/09/21 06:44:58;;;;;;;12.32;9.75;;;;;;;13.94;60.52;98254.06;4980106;28;20211;-78
2021/09/21 06:47:23;;;;;;;8.93;7.32;;;;;;;13.97;60.06;98264.84;5007686;28;20280;-79
2021/09/21 06:49:48;;;;;;;9.70;7.43;;;;;;;13.84;60.20;98265.16;4989244;28;20276;-77
2021/09/21 06:52:14;;;;;;;12.43;10.20;;;;;;;13.65;59.98;98251.53;4974531;28;20203;-78
2021/09/21 06:54:42;;;;;;;9.50;7.10;;;;;;;13.49;59.81;98259.13;4949307;28;20757;-77
2021/09/21 06:57:07;;;;;;;9.32;7.15;;;;;;;13.83;59.85;98264.38;4949307;28;20260;-78
2021/09/21 06:59:34;;;;;;;8.32;6.53;;;;;;;13.71;60.35;98266.28;4958294;28;20342;-78
2021/09/21 07:01:59;;;;;;;7.97;6.47;;;;;;;13.87;60.32;98267.31;4953056;28;20277;-78
2021/09/21 07:04:24;;;;;;;9.00;6.93;;;;;;;14.04;59.68;98278.56;4965756;28;20567;-78
2021/09/21 07:06:50;;;;;;;8.45;7.53;;;;;;;14.08;59.87;98289.34;4969084;28;20096;-78
2021/09/21 07:09:15;;;;;;;8.50;6.30;;;;;;;14.20;59.44;98300.53;4985341;28;20197;-78
2021/09/21 07:11:40;;;;;;;7.85;6.00;;;;;;;13.83;59.77;98300.25;4984226;28;20635;-77
2021/09/21 07:14:06;;;;;;;7.30;6.10;;;;;;;13.97;59.33;98306.75;4984661;28;20239;-78
2021/09/21 07:16:31;;;;;;;7.82;6.57;;;;;;;14.04;59.08;98296.91;4985413;28;20685;-77
2021/09/21 07:18:56;;;;;;;9.90;6.65;;;;;;;14.20;58.95;98305.78;4985465;28;20155;-77
2021/09/21 07:21:22;;;;;;;8.07;6.47;;;;;;;14.24;58.48;98300.88;4952148;28;20272;-77
2021/09/21 07:23:48;;;;;;;6.22;5.63;;;;;;;14.36;58.81;98287.66;4987204;28;20343;-78
2021/09/21 07:26:14;;;;;;;8.27;6.82;;;;;;;14.54;58.18;98289.22;4968759;28;20205;-77
2021/09/21 07:28:39;;;;;;;10.65;6.97;;;;;;;14.58;57.85;98280.66;4968953;28;20175;-78
2021/09/21 07:31:08;;;;;;;7.28;6.53;;;;;;;14.48;57.43;98274.44;4968841;28;20639;-78
2021/09/21 07:33:33;;;;;;;8.68;6.93;;;;;;;14.48;57.32;98271.84;4968470;28;20365;-78
2021/09/21 07:35:58;;;;;;;7.68;6.40;;;;;;;14.63;56.99;98279.91;4985101;28;20205;-78
2021/09/21 07:38:24;;;;;;;8.40;6.95;;;;;;;14.67;57.02;98280.22;4985094;28;20187;-78
2021/09/21 07:40:49;;;;;;;9.18;6.32;;;;;;;14.66;56.86;98292.53;4968537;28;20282;-78
2021/09/21 07:43:15;;;;;;;8.32;5.97;;;;;;;14.65;56.29;98288.34;4951510;28;20202;-78
2021/09/21 07:45:41;;;;;;;6.63;5.30;;;;;;;14.72;55.97;98288.16;4985344;28;20277;-78
2021/09/21 07:48:07;;;;;;;6.97;5.47;;;;;;;14.58;56.48;98295.56;4986905;28;20206;-78
2021/09/21 07:50:32;;;;;;;7.32;5.95;;;;;;;14.57;55.92;98302.63;4984999;28;20282;-78
2021/09/21 07:52:58;;;;;;;6.65;5.68;;;;;;;14.70;56.43;98295.47;4967971;28;20227;-78
2021/09/21 07:55:24;;;;;;;6.32;5.22;;;;;;;14.86;55.90;98307.75;4968229;28;20322;-79
2021/09/21 07:57:50;;;;;;;6.97;5.07;;;;;;;14.78;55.96;98314.19;4968547;28;20275;-78
2021/09/21 08:00:19;;;;;;;6.25;5.38;;;;;;;14.93;55.35;98324.09;4984597;28;20161;-78
2021/09/21 08:02:45;;;;;;;8.43;5.75;;;;;;;15.03;55.66;98323.41;4983824;28;20327;-78
2021/09/21 08:05:14;;;;;;;7.63;4.93;;;;;;;14.84;53.42;98319.50;4984653;28;20261;-77
2021/09/21 08:07:41;;;;;;;7.80;5.00;;;;;;;14.91;53.85;98323.53;4951885;28;20205;-77
2021/09/21 08:10:07;;;;;;;5.97;4.78;;;;;;;15.07;52.97;98321.88;4984495;28;20702;-77
2021/09/21 08:12:33;;;;;;;6.38;5.03;;;;;;;15.13;53.30;98327.97;4984457;28;20315;-78
2021/09/21 08:14:58;;;;;;;5.50;4.75;;;;;;;15.14;52.98;98327.72;4963980;28;20368;-77
2021/09/21 08:17:26;;;;;;;5.30;4.80;;;;;;;15.29;53.47;98329.75;4959875;28;20187;-78
2021/09/21 08:19:52;;;;;;;6.18;4.43;;;;;;;15.45;52.36;98320.19;4935307;28;20648;-78
2021/09/21 08:22:19;;;;;;;5.90;4.50;;;;;;;15.58;51.81;98323.47;4956923;28;20202;-78
2021/09/21 08:24:45;;;;;;;7.75;5.53;;;;;;;15.55;51.13;98320.28;4968216;28;20217;-79
2021/09/21 08:27:10;;;;;;;5.47;4.00;;;;;;;15.65;50.51;98319.59;4984562;28;20277;-78
2021/09/21 08:29:36;;;;;;;5.85;4.57;;;;;;;15.85;51.58;98324.28;4984298;28;20308;-78
2021/09/21 08:32:02;;;;;;;5.72;4.90;;;;;;;15.88;50.38;98320.34;4983901;28;20358;-78
2021/09/21 08:34:27;;;;;;;5.00;3.83;;;;;;;15.89;49.80;98330.59;4967807;28;20365;-78
2021/09/21 08:36:53;;;;;;;5.15;4.10;;;;;;;16.10;49.87;98333.38;4967777;28;20206;-78
2021/09/21 08:39:19;;;;;;;4.70;4.20;;;;;;;16.06;49.20;98324.44;4984449;28;20293;-78
2021/09/21 08:41:45;;;;;;;4.82;4.30;;;;;;;16.54;49.69;98314.75;4984393;28;20284;-78
2021/09/21 08:44:10;;;;;;;5.03;4.30;;;;;;;16.78;48.17;98309.09;4967801;28;20306;-79
2021/09/21 08:46:36;;;;;;;4.70;4.22;;;;;;;16.97;48.34;98312.88;4966396;28;20701;-78
2021/09/21 08:49:02;;;;;;;5.07;3.60;;;;;;;17.16;46.28;98325.56;4967990;28;20615;-78
2021/09/21 08:51:28;;;;;;;4.63;3.65;;;;;;;17.20;45.47;98326.63;4983871;28;20255;-78
2021/09/21 08:53:53;;;;;;;5.13;3.63;;;;;;;17.12;46.20;98342.91;4967058;28;20308;-77
2021/09/21 08:56:20;;;;;;;4.35;3.55;;;;;;;17.19;46.41;98343.47;4984183;28;20706;-77
2021/09/21 08:59:09;;;;;;;5.95;3.75;;;;;;;17.01;45.50;98350.75;4984239;28;20217;-78
2021/09/21 09:01:47;;;;;;;4.88;3.35;;;;;;;17.35;44.05;98347.72;4983778;28;20194;-79
2021/09/21 09:04:15;;;;;;;4.30;3.50;;;;;;;17.62;44.34;98349.38;4984217;28;20265;-78
2021/09/21 09:06:46;;;;;;;4.30;3.58;;;;;;;17.47;43.48;98357.25;4984596;28;20282;-78
2021/09/21 09:09:16;;;;;;;4.60;3.30;;;;;;;17.49;43.06;98355.91;4951434;28;20624;-78
2021/09/21 09:11:43;;;;;;;4.40;3.50;;;;;;;17.77;42.49;98356.53;4984155;28;20296;-77
2021/09/21 09:14:17;;;;;;;4.28;3.72;;;;;;;17.63;43.15;98361.47;4971232;28;20198;-78
2021/09/21 09:16:44;;;;;;;3.90;3.13;;;;;;;18.07;41.87;98362.88;4955210;28;20232;-78
2021/09/21 09:19:12;;;;;;;3.20;2.90;;;;;;;18.24;42.72;98373.94;4970986;28;20211;-78
2021/09/21 09:21:40;;;;;;;3.30;3.00;;;;;;;18.41;42.58;98371.03;4971181;28;20209;-79
2021/09/21 09:24:07;;;;;;;3.50;3.20;;;;;;;17.75;42.75;98369.13;4971075;28;20218;-78
2021/09/21 09:26:35;;;;;;;3.20;2.90;;;;;;;17.82;43.13;98368.88;4987577;28;20608;-78
2021/09/21 09:29:00;;;;;;;4.63;3.30;;;;;;;18.19;42.87;98378.44;4970977;28;20277;-79
2021/09/21 09:31:31;;;;;;;4.03;2.97;;;;;;;17.71;42.47;98384.69;4954195;28;20272;-78
2021/09/21 09:34:24;;;;;;;4.43;3.22;;;;;;;17.64;43.65;98378.09;4987160;28;20163;-78
2021/09/21 09:36:58;;;;;;;3.45;3.10;;;;;;;17.52;43.49;98384.38;4987833;28;20182;-79
2021/09/21 09:39:26;;;;;;;4.22;3.47;;;;;;;17.84;43.73;98393.13;4987117;28;20172;-78
2021/09/21 09:41:54;;;;;;;4.47;3.40;;;;;;;17.99;43.57;98392.38;4986928;28;20167;-78
2021/09/21 09:44:22;;;;;;;3.30;3.00;;;;;;;17.32;43.77;98403.53;4971257;28;20182;-79
2021/09/21 09:47:07;;;;;;;5.03;3.13;;;;;;;17.28;44.12;98402.47;4954423;28;20315;-78
2021/09/21 09:49:42;;;;;;;3.90;3.33;;;;;;;17.15;43.58;98401.13;4987704;28;20314;-78
2021/09/21 09:52:10;;;;;;;4.20;3.28;;;;;;;17.64;43.88;98409.69;4969955;28;20485;-78
2021/09/21 09:54:37;;;;;;;4.50;3.75;;;;;;;17.29;42.78;98398.78;4955055;28;20114;-81
2021/09/21 09:57:04;;;;;;;4.22;3.22;;;;;;;17.29;42.88;98397.97;4987496;28;20654;-78
2021/09/21 09:59:29;;;;;;;5.45;2.75;;;;;;;17.42;42.82;98390.38;4988889;28;20193;-78
2021/09/21 10:01:55;;;;;;;3.25;2.95;;;;;;;17.49;42.20;98390.16;4986805;28;20100;-79
2021/09/21 10:04:23;;;;;;;3.17;2.85;;;;;;;17.93;42.12;98392.38;4986768;28;20197;-78
2021/09/21 10:06:48;;;;;;;3.47;3.17;;;;;;;18.26;42.03;98400.03;4970840;28;20210;-78
2021/09/21 10:09:15;;;;;;;3.65;3.17;;;;;;;18.21;41.16;98392.91;4954243;28;20232;-78
2021/09/21 10:11:44;;;;;;;3.15;2.70;;;;;;;18.44;40.91;98396.88;4986274;28;20298;-78
2021/09/21 10:14:09;;;;;;;3.72;2.88;;;;;;;18.09;40.99;98393.19;4987386;28;20638;-77
2021/09/21 10:16:45;;;;;;;3.00;2.67;;;;;;;18.64;42.44;98397.91;4969831;28;20186;-77
2021/09/21 10:19:17;;;;;;;4.43;3.10;;;;;;;18.62;40.21;98397.38;4988789;28;20136;-78
2021/09/21 10:21:46;;;;;;;5.43;3.70;;;;;;;19.17;40.72;98400.94;4969123;28;20283;-78
2021/09/21 10:24:11;;;;;;;4.00;2.80;;;;;;;19.15;38.57;98404.94;4985717;28;20182;-77
2021/09/21 10:26:42;;;;;;;4.57;3.53;;;;;;;19.09;38.95;98412.88;4986874;28;20201;-78
2021/09/21 10:29:08;;;;;;;5.20;3.50;;;;;;;19.73;39.33;98399.09;4969638;28;20695;-78
2021/09/21 10:31:35;;;;;;;4.07;2.95;;;;;;;20.32;38.14;98389.44;4950504;28;20217;-79
2021/09/21 10:34:37;;;;;;;2.97;2.67;;;;;;;19.77;38.45;98402.78;4966416;28;20255;-79
2021/09/21 10:37:05;;;;;;;5.88;3.38;;;;;;;19.76;37.59;98398.59;4927529;28;20621;-78
2021/09/21 10:39:30;;;;;;;6.50;3.22;;;;;;;19.87;37.60;98391.38;4966217;28;20710;-78
2021/09/21 10:42:06;;;;;;;4.03;3.38;;;;;;;19.70;37.58;98381.94;4965975;28;20167;-79
2021/09/21 10:44:32;;;;;;;3.75;3.42;;;;;;;19.91;38.75;98390.56;4966475;28;20356;-79
2021/09/21 10:47:05;;;;;;;3.63;3.30;;;;;;;20.01;39.12;98379.09;4966065;28;20191;-78
2021/09/21 10:49:42;;;;;;;3.88;3.42;;;;;;;20.49;37.68;98387.16;4965585;28;20358;-78
2021/09/21 10:52:10;;;;;;;3.47;3.17;;;;;;;20.26;37.66;98382.63;4949183;28;20307;-78
2021/09/21 10:54:58;;;;;;;3.33;3.03;;;;;;;19.47;37.36;98386.03;4966283;28;20285;-79
2021/09/21 10:57:31;;;;;;;5.90;3.78;;;;;;;19.62;37.46;98378.03;4949793;28;20314;-78
2021/09/21 10:59:58;;;;;;;5.80;3.97;;;;;;;19.90;37.68;98373.09;4949199;28;20368;-78
2021/09/21 11:02:28;;;;;;;4.35;3.67;;;;;;;19.79;36.68;98372.41;4964891;28;20301;-77
2021/09/21 11:04:54;;;;;;;4.70;3.75;;;;;;;20.49;36.67;98359.91;4949666;28;20365;-78
2021/09/21 11:07:20;;;;;;;4.00;3.60;;;;;;;20.89;34.76;98360.59;4949285;28;20589;-78
2021/09/21 11:09:53;;;;;;;3.50;3.20;;;;;;;21.36;35.95;98352.84;4949241;28;20165;-78
2021/09/21 11:12:22;;;;;;;3.95;3.08;;;;;;;21.47;34.09;98357.75;4949114;28;20264;-78
2021/09/21 11:14:47;;;;;;;4.25;3.85;;;;;;;21.48;33.95;98355.91;4949549;28;20207;-77
2021/09/21 11:17:13;;;;;;;3.90;3.50;;;;;;;21.98;34.02;98360.72;4965744;28;20202;-78
2021/09/21 11:19:39;;;;;;;3.53;3.17;;;;;;;22.14;32.58;98354.09;4932826;28;20191;-79
2021/09/21 11:22:07;;;;;;;4.57;3.40;;;;;;;21.50;34.20;98362.47;4965495;28;20093;-77
2021/09/21 11:24:34;;;;;;;3.75;3.40;;;;;;;22.24;32.22;98353.13;4965175;28;20695;-78
2021/09/21 11:27:01;;;;;;;3.63;3.10;;;;;;;22.94;30.75;98356.66;4965500;28;20176;-78
2021/09/21 11:29:27;;;;;;;5.57;3.55;;;;;;;23.44;32.03;98353.25;4932836;28;20338;-78
2021/09/21 11:31:53;;;;;;;3.53;3.17;;;;;;;23.55;31.36;98366.00;4965470;28;20281;-78
2021/09/21 11:34:18;;;;;;;3.20;2.80;;;;;;;23.45;30.63;98371.56;4965652;28;20285;-79
2021/09/21 11:36:49;;;;;;;4.13;3.83;;;;;;;22.55;31.95;98368.53;4947689;28;20863;-78
2021/09/21 11:39:16;;;;;;;3.40;3.10;;;;;;;23.02;31.74;98374.56;4965597;28;20108;-78